Malmedy, Belgium
Current Conditions -  °F | °C
As of 9:25 AM on Friday 31 Oct 2014 (Local Time) from EBLB Reporting Station
Broken Clouds Broken Clouds  
Wind Chill: 54°   Ceiling: 11000
Heat Index: 54°   Visibility: 6mi
Dew Point: 50°   Wind: 8mph
Humidity: 88%   Direction: 200°SSW
Pressure: 30.27"   Gusts: NA
Location:  50.43°N, 6.03°E
Report Text: EBLB 310825Z 20007KT 9999 BKN110 12/10 Q1025 BLU
Loading
Personal Weather Stations






























Interactive Weather Map
Tropical Storm Tracking
New forecast layout! Learn more

10-Day Weather Forecast

Advertisements
Track Severe Weather on mobile